Latest Weather Observations for Cape Bruny AWS

IDT60901

Issued at 3:15 pm EDT Sunday 26 October 2014 (issued every 10 minutes, with the page automatically refreshed every 10 minutes)

About weather observations | Map of Hobart area stations | Latest observations for Hobart area | Other Formats
Station Details ID: 094198 Name: CAPE BRUNY (CAPE BRUNY) Lat: -43.49 Lon: 147.14 Height: 59.7 m
Data from the previous 72 hours. | See also: Recent months at Cape Bruny AWS
Date/Time
EDT
Tmp

°C
App
Tmp
°C
Dew
Point
°C
Rel
Hum
%
Delta-T

°C
Wind Press
QNH
hPa
Press
MSL
hPa
Rain
since
9 am
mm
Dir
 
Spd
km/h
Gust
km/h
Spd
kts
Gust
kts
26/03:00pm 13.7 8.5 9.0 73 2.4 NE 26 37 14 20 1011.9 1011.9 0.0
26/02:30pm 13.4 8.3 9.1 75 2.2 ENE 26 35 14 19 1012.2 1012.2 0.0
26/02:00pm 13.7 9.5 9.7 77 2.1 ENE 22 30 12 16 1012.5 1012.5 0.0
26/01:30pm 13.6 10.3 9.6 77 2.1 NE 17 26 9 14 1012.9 1013.0 0.0
26/01:00pm 12.8 9.0 9.8 82 1.5 NE 20 30 11 16 1013.2 1013.3 0.0
26/12:30pm 12.4 9.8 9.2 81 1.6 NNE 13 20 7 11 1013.6 1013.7 0.0
26/12:00pm 12.1 9.5 9.3 83 1.4 NE 13 20 7 11 1014.0 1014.1 0.0
26/11:30am 11.6 9.0 9.2 85 1.2 NNE 13 19 7 10 1014.2 1014.3 0.0
26/11:00am 11.5 8.9 9.2 86 1.2 NE 13 20 7 11 1014.4 1014.5 0.0
26/10:30am 11.1 8.5 9.2 88 1.0 NE 13 20 7 11 1014.5 1014.6 0.0
26/10:00am 11.2 9.4 9.6 90 0.8 NNE 9 11 5 6 1014.6 1014.7 0.0
26/09:30am 10.4 8.1 9.0 91 0.7 NNE 11 15 6 8 1014.8 1014.9 0.0
26/09:00am 10.0 8.4 8.8 92 0.6 N 7 11 4 6 1014.7 1014.8 7.0
26/08:30am 9.6 8.4 8.2 91 0.7 NNE 4 7 2 4 1014.8 1014.9 7.0
26/08:00am 9.2 7.4 8.0 92 0.6 N 7 9 4 5 1015.0 1015.1 7.0
26/07:30am 9.0 7.2 7.8 92 0.6 NNE 7 11 4 6 1014.8 1014.9 7.0
26/07:00am 8.8 5.7 7.4 91 0.7 NE 13 20 7 11 1014.8 1014.9 6.8
26/06:30am 8.7 6.0 7.3 91 0.7 NE 11 13 6 7 1015.0 1015.1 6.2
26/06:00am 8.6 6.2 7.1 90 0.7 NE 9 11 5 6 1015.1 1015.2 5.6
26/05:30am 8.6 6.6 7.1 90 0.7 NE 7 11 4 6 1015.0 1015.1 5.0
26/05:00am 8.4 6.9 6.9 90 0.7 NE 4 7 2 4 1015.3 1015.4 5.0
26/04:30am 8.5 6.5 7.0 90 0.7 NE 7 11 4 6 1015.4 1015.5 4.4
26/04:00am 8.5 6.4 6.8 89 0.8 NE 7 9 4 5 1015.5 1015.6 4.0
26/03:30am 8.4 5.9 6.5 88 0.9 NNE 9 13 5 7 1015.6 1015.7 3.2
26/03:00am 8.9 5.9 6.2 83 1.2 ENE 11 15 6 8 1015.5 1015.6 1.6
26/02:30am 9.7 7.0 5.5 75 1.9 E 9 11 5 6 1016.2 1016.3 0.0
26/02:00am 9.6 7.4 5.4 75 1.9 ENE 6 9 3 5 1016.6 1016.7 0.0
26/01:30am 9.4 7.0 5.2 75 1.9 NNE 7 9 4 5 1016.9 1017.0 0.0
26/01:00am 9.5 7.6 5.1 74 2.0 NE 4 7 2 4 1017.0 1017.1 0.0
26/12:30am 9.6 7.1 5.0 73 2.1 NE 7 9 4 5 1017.5 1017.6 0.0
26/12:00am 9.6 6.8 5.0 73 2.1 NE 9 13 5 7 1017.7 1017.8 0.0
 
Date/Time
EDT
Tmp

°C
App
Tmp
°C
Dew
Point
°C
Rel
Hum
%
Delta-T

°C
Wind Press
QNH
hPa
Press
MSL
hPa
Rain
since
9 am
mm
Dir
 
Spd
km/h
Gust
km/h
Spd
kts
Gust
kts
25/11:30pm 9.9 5.9 5.1 72 2.2 E 15 20 8 11 1017.7 1017.8 0.0
25/11:00pm 9.8 6.2 5.2 73 2.1 ENE 13 17 7 9 1017.8 1017.9 0.0
25/10:30pm 10.0 5.7 5.4 73 2.1 E 17 24 9 13 1017.6 1017.7 0.0
25/10:00pm 10.2 5.9 5.2 71 2.3 ESE 17 20 9 11 1017.8 1017.9 0.0
25/09:30pm 10.3 6.3 5.1 70 2.4 ESE 15 20 8 11 1018.0 1018.1 0.0
25/09:00pm 10.3 6.3 4.9 69 2.4 ESE 15 20 8 11 1018.0 1018.1 0.0
25/08:30pm 10.3 6.7 5.1 70 2.4 SE 13 20 7 11 1017.6 1017.7 0.0
25/08:00pm 10.5 6.4 4.6 67 2.7 S 15 22 8 12 1017.7 1017.8 0.0
25/07:30pm 10.5 6.5 4.9 68 2.5 S 15 19 8 10 1017.5 1017.6 0.0
25/07:00pm 10.7 6.7 5.0 68 2.6 S 15 22 8 12 1017.4 1017.5 0.0
25/06:30pm 10.8 6.1 5.1 68 2.6 S 19 26 10 14 1017.1 1017.2 0.0
25/06:00pm 11.5 6.7 5.8 68 2.7 S 20 24 11 13 1017.3 1017.4 0.0
25/05:30pm 11.2 6.5 5.1 66 2.8 S 19 26 10 14 1017.0 1017.1 0.0
25/05:00pm 11.9 7.3 5.5 65 3.0 S 19 28 10 15 1016.6 1016.7 0.0
25/04:30pm 12.2 7.4 5.6 64 3.1 S 20 26 11 14 1016.7 1016.8 0.0
25/04:00pm 12.7 7.9 5.4 61 3.4 S 20 32 11 17 1016.9 1017.0 0.0
25/03:30pm 12.9 7.9 6.3 64 3.1 S 22 28 12 15 1016.8 1016.9 0.0
25/03:00pm 12.8 7.6 5.7 62 3.3 S 22 32 12 17 1016.7 1016.8 0.0
25/02:30pm 13.4 9.2 7.6 68 2.9 SW 19 32 10 17 1017.0 1017.1 0.0
25/02:00pm 12.1 7.8 6.8 70 2.5 SW 19 28 10 15 1017.0 1017.1 0.0
25/01:30pm 12.6 7.5 7.7 72 2.4 SW 24 32 13 17 1016.9 1017.0 0.0
25/01:00pm 12.9 7.8 7.8 71 2.5 SW 24 37 13 20 1016.9 1017.0 0.0
25/12:30pm 12.9 8.1 9.0 77 2.0 SW 24 35 13 19 1016.5 1016.6 0.0
25/12:00pm 12.1 7.8 9.5 84 1.3 SSW 22 39 12 21 1016.7 1016.8 0.0
25/11:47am 12.3 6.8 9.1 81 1.6 SW 28 46 15 25 1016.6 1016.7 0.0
25/11:30am 13.7 7.9 9.4 75 2.2 SW 30 46 16 25 1016.5 1016.6 0.0
25/11:17am 14.9 9.7 10.3 74 2.4 WSW 28 46 15 25 1016.5 1016.6 0.0
25/11:00am 13.8 10.4 10.6 81 1.7 SW 19 33 10 18 1016.4 1016.5 0.0
25/10:30am 12.4 8.5 9.6 83 1.4 WSW 20 30 11 16 1016.2 1016.3 0.0
25/10:00am 12.6 7.9 9.1 79 1.8 WSW 24 35 13 19 1015.9 1016.0 0.0
25/09:30am 13.4 7.6 9.3 76 2.1 WSW 30 37 16 20 1015.5 1015.6 0.0
25/09:00am 11.8 5.8 8.8 82 1.5 WSW 30 37 16 20 1015.4 1015.5 1.4
25/08:30am 13.0 7.5 9.3 78 1.9 SW 28 39 15 21 1015.0 1015.1 1.4
25/08:00am 12.4 6.4 8.5 77 1.9 WSW 30 39 16 21 1014.7 1014.8 1.4
25/07:30am 11.9 5.8 8.4 79 1.7 WSW 30 39 16 21 1014.2 1014.3 1.4
25/07:00am 11.7 5.8 9.1 84 1.3 WSW 30 43 16 23 1013.6 1013.7 1.4
25/06:30am 12.0 5.8 9.2 83 1.4 WSW 32 41 17 22 1012.9 1013.0 1.4
25/06:00am 12.0 4.9 9.6 85 1.2 WSW 37 46 20 25 1012.2 1012.2 1.4
25/05:30am 11.7 4.6 9.4 86 1.2 WSW 37 46 20 25 1011.6 1011.6 1.4
25/05:00am 11.9 4.9 10.1 89 0.9 WSW 37 48 20 26 1011.7 1011.7 1.4
25/04:30am 12.3 5.2 10.9 91 0.7 WSW 39 52 21 28 1011.1 1011.1 1.4
25/04:00am 12.7 5.7 11.1 90 0.8 WSW 39 48 21 26 1010.6 1010.6 1.4
25/03:30am 12.7 6.5 11.3 91 0.7 WSW 35 46 19 25 1010.1 1010.1 1.4
25/03:00am 12.7 8.2 11.3 91 0.7 WSW 26 37 14 20 1009.9 1009.9 1.4
25/02:30am 12.8 6.6 11.5 92 0.7 WSW 35 46 19 25 1009.8 1009.8 1.4
25/02:00am 13.0 6.9 11.7 92 0.7 WSW 35 50 19 27 1009.4 1009.4 1.4
25/01:50am 13.1 8.3 11.8 92 0.7 WSW 28 46 15 25 1009.2 1009.2 1.4
25/01:30am 13.1 8.3 11.8 92 0.7 WSW 28 41 15 22 1009.2 1009.2 1.4
25/01:00am 12.9 9.6 11.6 92 0.7 SW 20 28 11 15 1009.1 1009.1 1.4
25/12:30am 13.0 10.3 11.6 91 0.7 SW 17 24 9 13 1009.5 1009.5 1.4
25/12:00am 13.4 8.9 11.5 88 1.0 WSW 26 33 14 18 1009.1 1009.1 1.4
 
Date/Time
EDT
Tmp

°C
App
Tmp
°C
Dew
Point
°C
Rel
Hum
%
Delta-T

°C
Wind Press
QNH
hPa
Press
MSL
hPa
Rain
since
9 am
mm
Dir
 
Spd
km/h
Gust
km/h
Spd
kts
Gust
kts
24/11:30pm 13.3 8.6 10.5 83 1.5 SW 26 35 14 19 1009.1 1009.1 1.2
24/11:00pm 13.4 10.7 10.4 82 1.6 WSW 15 26 8 14 1009.1 1009.1 1.2
24/10:30pm 13.8 13.1 11.5 86 1.2 ESE 6 9 3 5 1008.9 1008.9 1.2
24/10:00pm 14.0 14.5 11.7 86 1.2 CALM 0 0 0 0 1008.2 1008.2 1.2
24/09:30pm 15.0 13.6 12.3 84 1.5 W 11 15 6 8 1008.7 1008.7 0.8
24/09:00pm 15.7 12.7 12.5 81 1.8 N 20 28 11 15 1008.4 1008.4 0.0
24/08:30pm 15.4 12.6 12.5 83 1.6 N 19 26 10 14 1007.9 1007.9 0.0
24/08:00pm 15.9 12.9 12.5 80 1.9 N 20 30 11 16 1007.5 1007.5 0.0
24/07:30pm 16.2 13.1 12.2 77 2.2 NNE 20 30 11 16 1006.4 1006.4 0.0
24/07:00pm 16.3 13.4 12.3 77 2.2 NNE 19 24 10 13 1006.8 1006.8 0.0
24/06:30pm 16.3 12.4 12.1 76 2.3 NE 24 35 13 19 1006.9 1006.9 0.0
24/06:00pm 16.6 13.7 12.2 75 2.4 NE 19 28 10 15 1008.2 1008.2 0.0
24/05:30pm 16.6 13.1 12.2 75 2.4 ENE 22 32 12 17 1008.5 1008.5 0.0
24/05:00pm 17.2 12.2 12.3 73 2.7 NE 30 41 16 22 1008.5 1008.5 0.0
24/04:30pm 17.0 11.9 11.9 72 2.8 NE 30 43 16 23 1008.8 1008.8 0.0
24/04:00pm 17.0 11.8 11.7 71 2.9 NE 30 43 16 23 1009.3 1009.3 0.0
24/03:30pm 17.2 12.3 11.2 68 3.2 ENE 28 37 15 20 1009.7 1009.7 0.0
24/03:00pm 17.6 12.5 10.7 64 3.7 NE 28 41 15 22 1010.5 1010.5 0.0
24/02:30pm 18.2 12.8 10.8 62 4.0 NNE 30 41 16 22 1011.0 1011.0 0.0
24/02:19pm 18.1 13.1 11.0 63 3.9 NNE 28 46 15 25 1011.1 1011.1 0.0
24/02:00pm 19.2 14.1 10.5 57 4.7 NNE 28 43 15 23 1011.6 1011.6 0.0
24/01:45pm 18.5 12.9 10.1 58 4.5 NE 30 52 16 28 1011.8 1011.8 0.0
24/01:30pm 18.8 13.6 10.4 58 4.5 NE 28 39 15 21 1012.2 1012.2 0.0
24/01:00pm 17.9 11.6 9.8 59 4.3 NNE 33 48 18 26 1012.9 1013.0 0.0
24/12:47pm 17.7 11.9 9.3 58 4.4 NNE 30 50 16 27 1013.1 1013.2 0.0
24/12:30pm 18.0 11.8 9.9 59 4.3 NE 33 48 18 26 1013.3 1013.4 0.0
24/12:00pm 16.7 10.4 8.9 60 4.0 NNE 32 52 17 28 1014.2 1014.3 0.0
24/11:41am 16.3 10.6 8.5 60 4.0 NNE 28 46 15 25 1014.5 1014.6 0.0
24/11:30am 15.6 9.9 8.4 62 3.7 NE 28 44 15 24 1014.7 1014.8 0.0
24/11:00am 15.3 8.6 8.1 62 3.6 NNE 33 48 18 26 1015.2 1015.3 0.0
24/10:30am 15.2 8.7 8.0 62 3.6 NNE 32 52 17 28 1015.9 1016.0 0.0
24/10:00am 13.6 6.8 6.9 64 3.2 NNE 32 52 17 28 1016.3 1016.4 0.0
24/09:30am 13.3 6.4 6.6 64 3.2 NNE 32 50 17 27 1016.7 1016.8 0.0
24/09:00am 11.9 4.9 6.2 68 2.7 NNE 32 50 17 27 1016.9 1017.0 0.0
24/08:40am 12.1 5.5 5.9 66 2.9 NNE 30 48 16 26 1017.3 1017.4 0.0
24/08:30am 11.8 5.6 6.3 69 2.6 NNE 28 43 15 23 1017.5 1017.6 0.0
24/08:00am 11.9 6.4 6.0 67 2.8 NNE 24 41 13 22 1018.1 1018.2 0.0
24/07:30am 10.8 4.5 5.6 70 2.4 NNE 28 46 15 25 1018.3 1018.4 0.0
24/07:29am 10.8 4.5 5.6 70 2.4 NNE 28 46 15 25 1018.3 1018.4 0.0
24/07:00am 10.1 5.5 5.5 73 2.1 NNE 19 30 10 16 1018.5 1018.6 0.0
24/06:30am 9.3 3.3 5.1 75 1.9 NE 26 35 14 19 1018.8 1018.9 0.0
24/06:00am 8.6 3.9 5.0 78 1.6 NE 19 30 10 16 1019.6 1019.6 0.0
24/05:30am 8.8 4.0 4.8 76 1.8 NNE 19 32 10 17 1019.7 1019.7 0.0
24/05:00am 9.0 3.3 4.8 75 1.9 NNE 24 35 13 19 1020.1 1020.1 0.0
24/04:30am 8.9 3.6 4.9 76 1.8 NNE 22 30 12 16 1020.3 1020.3 0.0
24/04:00am 8.8 3.5 4.8 76 1.8 NNE 22 32 12 17 1020.6 1020.6 0.0
24/03:30am 8.9 3.2 4.7 75 1.9 NE 24 37 13 20 1021.2 1021.2 0.0
24/03:00am 9.1 3.7 4.7 74 2.0 NNE 22 37 12 20 1021.8 1021.8 0.0
24/02:30am 8.9 3.2 4.7 75 1.9 NE 24 37 13 20 1021.8 1021.8 0.0
24/02:00am 9.0 3.3 4.8 75 1.9 NNE 24 35 13 19 1022.3 1022.3 0.0
24/01:30am 9.2 3.1 4.6 73 2.0 NNE 26 41 14 22 1022.5 1022.5 0.0
24/01:00am 9.3 3.6 4.7 73 2.0 NNE 24 39 13 21 1022.8 1022.8 0.0
24/12:30am 9.4 4.4 4.8 73 2.1 NNE 20 33 11 18 1023.2 1023.2 0.0
24/12:00am 9.6 3.9 5.0 73 2.1 NE 24 39 13 21 1023.6 1023.6 0.0
 
Date/Time
EDT
Tmp

°C
App
Tmp
°C
Dew
Point
°C
Rel
Hum
%
Delta-T

°C
Wind Press
QNH
hPa
Press
MSL
hPa
Rain
since
9 am
mm
Dir
 
Spd
km/h
Gust
km/h
Spd
kts
Gust
kts
23/11:30pm 9.5 4.6 5.3 75 1.9 NE 20 32 11 17 1023.8 1023.8 0.0
23/11:00pm 9.7 4.8 5.3 74 2.0 NNE 20 30 11 16 1024.0 1024.0 0.0
23/10:30pm 9.6 4.7 5.0 73 2.1 NE 20 32 11 17 1023.9 1023.9 0.0
23/10:00pm 9.4 5.0 4.8 73 2.0 NNE 17 26 9 14 1024.2 1024.2 0.0
23/09:30pm 9.6 4.7 5.0 73 2.1 NE 20 32 11 17 1024.2 1024.2 0.0
23/09:00pm 9.3 4.6 5.1 75 1.9 NE 19 28 10 15 1024.4 1024.4 0.0
23/08:30pm 9.2 5.2 4.8 74 2.0 NE 15 19 8 10 1024.7 1024.7 0.0
23/08:00pm 9.4 5.0 4.8 73 2.0 ENE 17 20 9 11 1024.5 1024.5 0.0
23/07:30pm 10.1 5.2 4.9 70 2.3 ENE 20 32 11 17 1024.7 1024.7 0.0
23/07:00pm 10.9 4.9 5.4 69 2.5 ENE 26 39 14 21 1024.6 1024.6 0.0
23/06:30pm 11.6 6.0 5.3 65 2.9 ENE 24 32 13 17 1024.8 1024.8 0.0
23/06:00pm 12.2 6.6 5.4 63 3.1 ENE 24 28 13 15 1024.8 1024.8 0.0
23/05:30pm 12.2 5.0 6.0 66 2.9 E 33 43 18 23 1024.5 1024.5 0.0
23/05:00pm 12.5 5.3 5.7 63 3.2 ESE 33 39 18 21 1024.5 1024.5 0.0
23/04:30pm 13.0 6.6 5.2 59 3.6 E 28 41 15 22 1024.4 1024.4 0.0
23/04:00pm 13.7 8.5 5.3 57 3.9 E 22 32 12 17 1024.5 1024.5 0.0
23/03:30pm 14.0 8.7 4.9 54 4.2 E 22 32 12 17 1024.6 1024.6 0.0

Latest Capital City Observations: Canberra | Sydney | Melbourne | Brisbane | Adelaide | Perth | Hobart | Darwin

Other Formats:

Comma delimited format used in spreadsheet applications
http://www.bom.gov.au/fwo/IDT60901/IDT60901.95967.axf

JavaScript Object Notation format (JSON) in row-major order
http://www.bom.gov.au/fwo/IDT60901/IDT60901.95967.json